sensor_id;sensor_type;location;lat;lon;timestamp;P1;durP1;ratioP1;P2;durP2;ratioP2
38591;SDS011;24356;48.460;11.450;2023-04-25T00:01:25;2.55;;;2.05;;
38591;SDS011;24356;48.460;11.450;2023-04-25T00:03:51;4.03;;;2.15;;
38591;SDS011;24356;48.460;11.450;2023-04-25T00:06:17;3.70;;;2.22;;
38591;SDS011;24356;48.460;11.450;2023-04-25T00:08:42;4.00;;;2.20;;
38591;SDS011;24356;48.460;11.450;2023-04-25T00:11:08;3.85;;;2.63;;
38591;SDS011;24356;48.460;11.450;2023-04-25T00:13:34;3.45;;;2.20;;
38591;SDS011;24356;48.460;11.450;2023-04-25T00:16:00;2.83;;;2.15;;
38591;SDS011;24356;48.460;11.450;2023-04-25T00:18:27;5.57;;;2.47;;
38591;SDS011;24356;48.460;11.450;2023-04-25T00:20:54;3.58;;;2.33;;
38591;SDS011;24356;48.460;11.450;2023-04-25T00:23:20;2.85;;;2.30;;
38591;SDS011;24356;48.460;11.450;2023-04-25T00:25:47;4.53;;;2.38;;
38591;SDS011;24356;48.460;11.450;2023-04-25T00:28:14;3.80;;;2.38;;
38591;SDS011;24356;48.460;11.450;2023-04-25T00:30:41;5.75;;;2.60;;
38591;SDS011;24356;48.460;11.450;2023-04-25T00:33:08;3.13;;;2.20;;
38591;SDS011;24356;48.460;11.450;2023-04-25T00:35:34;4.10;;;2.45;;
38591;SDS011;24356;48.460;11.450;2023-04-25T00:37:59;3.22;;;2.53;;
38591;SDS011;24356;48.460;11.450;2023-04-25T00:40:26;3.42;;;2.15;;
38591;SDS011;24356;48.460;11.450;2023-04-25T00:42:52;3.33;;;2.33;;
38591;SDS011;24356;48.460;11.450;2023-04-25T00:45:18;3.60;;;2.30;;
38591;SDS011;24356;48.460;11.450;2023-04-25T00:47:44;4.22;;;2.53;;
38591;SDS011;24356;48.460;11.450;2023-04-25T00:50:11;3.70;;;3.20;;
38591;SDS011;24356;48.460;11.450;2023-04-25T00:52:40;5.07;;;2.40;;
38591;SDS011;24356;48.460;11.450;2023-04-25T00:55:08;3.20;;;2.30;;
38591;SDS011;24356;48.460;11.450;2023-04-25T00:57:36;4.28;;;2.28;;
38591;SDS011;24356;48.460;11.450;2023-04-25T01:00:02;3.53;;;2.50;;
38591;SDS011;24356;48.460;11.450;2023-04-25T01:02:30;4.55;;;2.72;;
38591;SDS011;24356;48.460;11.450;2023-04-25T01:04:58;3.45;;;2.70;;
38591;SDS011;24356;48.460;11.450;2023-04-25T01:07:24;5.65;;;2.38;;
38591;SDS011;24356;48.460;11.450;2023-04-25T01:09:53;3.72;;;2.60;;
38591;SDS011;24356;48.460;11.450;2023-04-25T01:12:19;3.90;;;2.45;;
38591;SDS011;24356;48.460;11.450;2023-04-25T01:14:45;4.60;;;2.40;;
38591;SDS011;24356;48.460;11.450;2023-04-25T01:17:11;4.15;;;2.53;;
38591;SDS011;24356;48.460;11.450;2023-04-25T01:19:37;5.28;;;2.72;;
38591;SDS011;24356;48.460;11.450;2023-04-25T01:22:03;3.65;;;2.55;;
38591;SDS011;24356;48.460;11.450;2023-04-25T01:24:29;6.60;;;2.67;;
38591;SDS011;24356;48.460;11.450;2023-04-25T01:26:59;3.83;;;2.33;;
38591;SDS011;24356;48.460;11.450;2023-04-25T01:29:25;3.08;;;2.35;;
38591;SDS011;24356;48.460;11.450;2023-04-25T01:31:51;4.40;;;2.67;;
38591;SDS011;24356;48.460;11.450;2023-04-25T01:34:18;5.93;;;2.72;;
38591;SDS011;24356;48.460;11.450;2023-04-25T01:36:44;4.95;;;2.85;;
38591;SDS011;24356;48.460;11.450;2023-04-25T01:39:09;5.70;;;3.08;;
38591;SDS011;24356;48.460;11.450;2023-04-25T01:41:35;3.90;;;2.80;;
38591;SDS011;24356;48.460;11.450;2023-04-25T01:44:01;2.95;;;2.35;;
38591;SDS011;24356;48.460;11.450;2023-04-25T01:46:27;4.47;;;2.75;;
38591;SDS011;24356;48.460;11.450;2023-04-25T01:48:53;4.97;;;2.45;;
38591;SDS011;24356;48.460;11.450;2023-04-25T01:51:19;4.18;;;2.83;;
38591;SDS011;24356;48.460;11.450;2023-04-25T01:53:45;5.18;;;2.47;;
38591;SDS011;24356;48.460;11.450;2023-04-25T01:56:12;5.18;;;2.83;;
38591;SDS011;24356;48.460;11.450;2023-04-25T01:58:38;5.38;;;2.47;;
38591;SDS011;24356;48.460;11.450;2023-04-25T02:01:03;6.90;;;2.70;;
38591;SDS011;24356;48.460;11.450;2023-04-25T02:03:30;4.50;;;2.97;;
38591;SDS011;24356;48.460;11.450;2023-04-25T02:05:56;5.75;;;2.92;;
38591;SDS011;24356;48.460;11.450;2023-04-25T02:08:22;3.53;;;2.67;;
38591;SDS011;24356;48.460;11.450;2023-04-25T02:10:47;3.22;;;2.60;;
38591;SDS011;24356;48.460;11.450;2023-04-25T02:13:13;5.05;;;3.05;;
38591;SDS011;24356;48.460;11.450;2023-04-25T02:15:39;5.85;;;2.97;;
38591;SDS011;24356;48.460;11.450;2023-04-25T02:18:06;4.38;;;2.95;;
38591;SDS011;24356;48.460;11.450;2023-04-25T02:20:31;4.55;;;2.80;;
38591;SDS011;24356;48.460;11.450;2023-04-25T02:22:57;5.40;;;2.78;;
38591;SDS011;24356;48.460;11.450;2023-04-25T02:25:23;5.32;;;3.00;;
38591;SDS011;24356;48.460;11.450;2023-04-25T02:27:49;6.20;;;3.10;;
38591;SDS011;24356;48.460;11.450;2023-04-25T02:30:16;4.50;;;3.00;;
38591;SDS011;24356;48.460;11.450;2023-04-25T02:32:42;5.85;;;3.08;;
38591;SDS011;24356;48.460;11.450;2023-04-25T02:35:07;6.18;;;2.60;;
38591;SDS011;24356;48.460;11.450;2023-04-25T02:37:34;4.13;;;2.95;;
38591;SDS011;24356;48.460;11.450;2023-04-25T02:40:00;5.63;;;2.58;;
38591;SDS011;24356;48.460;11.450;2023-04-25T02:42:27;6.75;;;2.80;;
38591;SDS011;24356;48.460;11.450;2023-04-25T02:44:52;3.58;;;2.63;;
38591;SDS011;24356;48.460;11.450;2023-04-25T02:47:18;3.20;;;2.53;;
38591;SDS011;24356;48.460;11.450;2023-04-25T02:49:44;3.65;;;2.78;;
38591;SDS011;24356;48.460;11.450;2023-04-25T02:52:11;4.90;;;3.03;;
38591;SDS011;24356;48.460;11.450;2023-04-25T02:54:37;6.50;;;3.10;;
38591;SDS011;24356;48.460;11.450;2023-04-25T02:57:03;4.03;;;2.75;;
38591;SDS011;24356;48.460;11.450;2023-04-25T02:59:29;5.28;;;3.10;;
38591;SDS011;24356;48.460;11.450;2023-04-25T03:01:54;4.78;;;3.15;;
38591;SDS011;24356;48.460;11.450;2023-04-25T03:04:20;4.97;;;2.97;;
38591;SDS011;24356;48.460;11.450;2023-04-25T03:06:48;4.90;;;3.17;;
38591;SDS011;24356;48.460;11.450;2023-04-25T03:09:18;5.20;;;2.75;;
38591;SDS011;24356;48.460;11.450;2023-04-25T03:11:44;5.75;;;3.00;;
38591;SDS011;24356;48.460;11.450;2023-04-25T03:14:10;4.75;;;3.20;;
38591;SDS011;24356;48.460;11.450;2023-04-25T03:16:36;4.70;;;2.80;;
38591;SDS011;24356;48.460;11.450;2023-04-25T03:19:03;6.25;;;3.10;;
38591;SDS011;24356;48.460;11.450;2023-04-25T03:21:29;5.47;;;2.92;;
38591;SDS011;24356;48.460;11.450;2023-04-25T03:23:57;4.15;;;2.20;;
38591;SDS011;24356;48.460;11.450;2023-04-25T03:26:24;6.80;;;3.35;;
38591;SDS011;24356;48.460;11.450;2023-04-25T03:28:49;5.20;;;3.75;;
38591;SDS011;24356;48.460;11.450;2023-04-25T03:31:15;6.40;;;2.90;;
38591;SDS011;24356;48.460;11.450;2023-04-25T03:33:41;5.63;;;3.22;;
38591;SDS011;24356;48.460;11.450;2023-04-25T03:36:07;4.05;;;2.83;;
38591;SDS011;24356;48.460;11.450;2023-04-25T03:38:33;7.18;;;3.50;;
38591;SDS011;24356;48.460;11.450;2023-04-25T03:40:58;4.57;;;3.00;;
38591;SDS011;24356;48.460;11.450;2023-04-25T03:43:24;7.95;;;3.72;;
38591;SDS011;24356;48.460;11.450;2023-04-25T03:45:50;7.50;;;3.83;;
38591;SDS011;24356;48.460;11.450;2023-04-25T03:48:17;8.98;;;3.65;;
38591;SDS011;24356;48.460;11.450;2023-04-25T03:50:46;5.47;;;2.92;;
38591;SDS011;24356;48.460;11.450;2023-04-25T03:53:12;4.70;;;3.30;;
38591;SDS011;24356;48.460;11.450;2023-04-25T03:55:37;5.30;;;3.65;;
38591;SDS011;24356;48.460;11.450;2023-04-25T03:58:03;6.53;;;3.33;;
38591;SDS011;24356;48.460;11.450;2023-04-25T04:00:28;5.32;;;3.05;;
38591;SDS011;24356;48.460;11.450;2023-04-25T04:02:54;6.68;;;3.83;;
38591;SDS011;24356;48.460;11.450;2023-04-25T04:05:20;3.97;;;2.90;;
38591;SDS011;24356;48.460;11.450;2023-04-25T04:07:46;5.20;;;2.97;;
38591;SDS011;24356;48.460;11.450;2023-04-25T04:10:11;4.43;;;3.13;;
38591;SDS011;24356;48.460;11.450;2023-04-25T04:12:37;8.88;;;3.53;;
38591;SDS011;24356;48.460;11.450;2023-04-25T04:15:04;7.13;;;3.50;;
38591;SDS011;24356;48.460;11.450;2023-04-25T04:17:30;5.68;;;3.67;;
38591;SDS011;24356;48.460;11.450;2023-04-25T04:19:57;6.45;;;3.10;;
38591;SDS011;24356;48.460;11.450;2023-04-25T04:22:23;5.55;;;3.08;;
38591;SDS011;24356;48.460;11.450;2023-04-25T04:24:49;3.88;;;3.08;;
38591;SDS011;24356;48.460;11.450;2023-04-25T04:27:18;8.13;;;2.97;;
38591;SDS011;24356;48.460;11.450;2023-04-25T04:29:45;3.95;;;2.67;;
38591;SDS011;24356;48.460;11.450;2023-04-25T04:32:13;4.95;;;2.83;;
38591;SDS011;24356;48.460;11.450;2023-04-25T04:34:39;11.05;;;2.80;;
38591;SDS011;24356;48.460;11.450;2023-04-25T04:37:06;5.47;;;3.00;;
38591;SDS011;24356;48.460;11.450;2023-04-25T04:39:32;4.47;;;3.20;;
38591;SDS011;24356;48.460;11.450;2023-04-25T04:41:58;5.82;;;3.13;;
38591;SDS011;24356;48.460;11.450;2023-04-25T04:44:26;5.43;;;3.55;;
38591;SDS011;24356;48.460;11.450;2023-04-25T04:46:52;5.28;;;2.97;;
38591;SDS011;24356;48.460;11.450;2023-04-25T04:49:20;4.43;;;2.90;;
38591;SDS011;24356;48.460;11.450;2023-04-25T04:51:46;5.55;;;3.20;;
38591;SDS011;24356;48.460;11.450;2023-04-25T04:54:14;5.85;;;3.70;;
38591;SDS011;24356;48.460;11.450;2023-04-25T04:56:40;5.57;;;3.70;;
38591;SDS011;24356;48.460;11.450;2023-04-25T04:59:06;6.18;;;3.17;;
38591;SDS011;24356;48.460;11.450;2023-04-25T05:01:32;3.95;;;2.95;;
38591;SDS011;24356;48.460;11.450;2023-04-25T05:04:00;4.25;;;3.25;;
38591;SDS011;24356;48.460;11.450;2023-04-25T05:06:26;4.90;;;3.13;;
38591;SDS011;24356;48.460;11.450;2023-04-25T05:08:52;4.53;;;2.97;;
38591;SDS011;24356;48.460;11.450;2023-04-25T05:11:18;8.40;;;3.45;;
38591;SDS011;24356;48.460;11.450;2023-04-25T05:13:44;5.20;;;2.92;;
38591;SDS011;24356;48.460;11.450;2023-04-25T05:16:10;6.38;;;3.53;;
38591;SDS011;24356;48.460;11.450;2023-04-25T05:18:36;7.65;;;3.60;;
38591;SDS011;24356;48.460;11.450;2023-04-25T05:21:02;6.13;;;3.08;;
38591;SDS011;24356;48.460;11.450;2023-04-25T05:23:28;5.68;;;3.30;;
38591;SDS011;24356;48.460;11.450;2023-04-25T05:25:55;6.18;;;3.45;;
38591;SDS011;24356;48.460;11.450;2023-04-25T05:28:21;5.22;;;2.80;;
38591;SDS011;24356;48.460;11.450;2023-04-25T05:30:48;6.80;;;2.97;;
38591;SDS011;24356;48.460;11.450;2023-04-25T05:33:14;4.68;;;2.88;;
38591;SDS011;24356;48.460;11.450;2023-04-25T05:35:40;4.30;;;2.67;;
38591;SDS011;24356;48.460;11.450;2023-04-25T05:38:06;5.32;;;2.78;;
38591;SDS011;24356;48.460;11.450;2023-04-25T05:40:31;4.63;;;3.17;;
38591;SDS011;24356;48.460;11.450;2023-04-25T05:42:57;6.60;;;2.78;;
38591;SDS011;24356;48.460;11.450;2023-04-25T05:45:23;5.65;;;3.20;;
38591;SDS011;24356;48.460;11.450;2023-04-25T05:47:48;6.45;;;2.92;;
38591;SDS011;24356;48.460;11.450;2023-04-25T05:50:14;4.57;;;2.90;;
38591;SDS011;24356;48.460;11.450;2023-04-25T05:52:40;6.07;;;2.88;;
38591;SDS011;24356;48.460;11.450;2023-04-25T05:55:05;10.05;;;4.57;;
38591;SDS011;24356;48.460;11.450;2023-04-25T05:57:31;4.53;;;2.90;;
38591;SDS011;24356;48.460;11.450;2023-04-25T05:59:57;4.03;;;2.83;;
38591;SDS011;24356;48.460;11.450;2023-04-25T06:02:23;4.82;;;2.47;;
38591;SDS011;24356;48.460;11.450;2023-04-25T06:04:51;6.93;;;3.13;;
38591;SDS011;24356;48.460;11.450;2023-04-25T06:07:18;5.03;;;3.10;;
38591;SDS011;24356;48.460;11.450;2023-04-25T06:09:44;4.25;;;2.50;;
38591;SDS011;24356;48.460;11.450;2023-04-25T06:12:10;5.88;;;2.80;;
38591;SDS011;24356;48.460;11.450;2023-04-25T06:14:36;3.95;;;2.30;;
38591;SDS011;24356;48.460;11.450;2023-04-25T06:17:02;3.60;;;2.53;;
38591;SDS011;24356;48.460;11.450;2023-04-25T06:19:31;5.70;;;2.63;;
38591;SDS011;24356;48.460;11.450;2023-04-25T06:21:58;3.92;;;2.60;;
38591;SDS011;24356;48.460;11.450;2023-04-25T06:24:23;5.53;;;2.60;;
38591;SDS011;24356;48.460;11.450;2023-04-25T06:26:49;8.85;;;2.55;;
38591;SDS011;24356;48.460;11.450;2023-04-25T06:29:15;3.70;;;2.60;;
38591;SDS011;24356;48.460;11.450;2023-04-25T06:31:42;5.45;;;2.97;;
38591;SDS011;24356;48.460;11.450;2023-04-25T06:34:07;5.68;;;2.50;;
38591;SDS011;24356;48.460;11.450;2023-04-25T06:36:33;6.22;;;2.90;;
38591;SDS011;24356;48.460;11.450;2023-04-25T06:38:58;4.60;;;2.42;;
38591;SDS011;24356;48.460;11.450;2023-04-25T06:41:24;3.95;;;2.25;;
38591;SDS011;24356;48.460;11.450;2023-04-25T06:43:50;4.72;;;2.35;;
38591;SDS011;24356;48.460;11.450;2023-04-25T06:46:15;4.35;;;2.25;;
38591;SDS011;24356;48.460;11.450;2023-04-25T06:48:41;5.70;;;2.30;;
38591;SDS011;24356;48.460;11.450;2023-04-25T06:51:07;6.90;;;1.92;;
38591;SDS011;24356;48.460;11.450;2023-04-25T06:53:33;4.93;;;2.33;;
38591;SDS011;24356;48.460;11.450;2023-04-25T06:55:58;5.82;;;2.40;;
38591;SDS011;24356;48.460;11.450;2023-04-25T06:58:24;4.35;;;2.35;;
38591;SDS011;24356;48.460;11.450;2023-04-25T07:00:51;5.35;;;2.30;;
38591;SDS011;24356;48.460;11.450;2023-04-25T07:03:16;4.95;;;2.10;;
38591;SDS011;24356;48.460;11.450;2023-04-25T07:05:42;3.13;;;1.85;;
38591;SDS011;24356;48.460;11.450;2023-04-25T07:08:07;3.45;;;2.15;;
38591;SDS011;24356;48.460;11.450;2023-04-25T07:10:33;6.93;;;2.35;;
38591;SDS011;24356;48.460;11.450;2023-04-25T07:12:59;3.75;;;2.35;;
38591;SDS011;24356;48.460;11.450;2023-04-25T07:15:25;3.95;;;2.05;;
38591;SDS011;24356;48.460;11.450;2023-04-25T07:17:50;5.65;;;2.17;;
38591;SDS011;24356;48.460;11.450;2023-04-25T07:20:16;6.15;;;2.47;;
38591;SDS011;24356;48.460;11.450;2023-04-25T07:22:42;6.00;;;2.10;;
38591;SDS011;24356;48.460;11.450;2023-04-25T07:25:07;6.28;;;2.13;;
38591;SDS011;24356;48.460;11.450;2023-04-25T07:27:35;4.28;;;1.77;;
38591;SDS011;24356;48.460;11.450;2023-04-25T07:30:00;3.75;;;1.95;;
38591;SDS011;24356;48.460;11.450;2023-04-25T07:32:26;5.40;;;2.60;;
38591;SDS011;24356;48.460;11.450;2023-04-25T07:34:52;9.15;;;2.45;;
38591;SDS011;24356;48.460;11.450;2023-04-25T07:37:17;3.17;;;2.20;;
38591;SDS011;24356;48.460;11.450;2023-04-25T07:39:45;6.70;;;2.45;;
38591;SDS011;24356;48.460;11.450;2023-04-25T07:42:11;5.18;;;2.35;;
38591;SDS011;24356;48.460;11.450;2023-04-25T07:44:37;7.35;;;2.15;;
38591;SDS011;24356;48.460;11.450;2023-04-25T07:47:07;3.70;;;2.35;;
38591;SDS011;24356;48.460;11.450;2023-04-25T07:49:34;5.65;;;2.15;;
38591;SDS011;24356;48.460;11.450;2023-04-25T07:52:02;3.65;;;2.30;;
38591;SDS011;24356;48.460;11.450;2023-04-25T07:54:28;6.25;;;2.45;;
38591;SDS011;24356;48.460;11.450;2023-04-25T07:56:54;3.38;;;2.28;;
38591;SDS011;24356;48.460;11.450;2023-04-25T07:59:20;3.45;;;1.85;;
38591;SDS011;24356;48.460;11.450;2023-04-25T08:01:47;4.55;;;2.08;;
38591;SDS011;24356;48.460;11.450;2023-04-25T08:04:13;4.03;;;2.20;;
38591;SDS011;24356;48.460;11.450;2023-04-25T08:06:39;5.28;;;2.17;;
38591;SDS011;24356;48.460;11.450;2023-04-25T08:09:05;6.00;;;2.28;;
38591;SDS011;24356;48.460;11.450;2023-04-25T08:11:31;4.05;;;1.80;;
38591;SDS011;24356;48.460;11.450;2023-04-25T08:13:56;4.07;;;2.10;;
38591;SDS011;24356;48.460;11.450;2023-04-25T08:16:22;4.88;;;2.40;;
38591;SDS011;24356;48.460;11.450;2023-04-25T08:18:48;5.78;;;2.15;;
38591;SDS011;24356;48.460;11.450;2023-04-25T08:21:15;4.35;;;2.30;;
38591;SDS011;24356;48.460;11.450;2023-04-25T08:23:40;4.07;;;2.45;;
38591;SDS011;24356;48.460;11.450;2023-04-25T08:26:06;4.32;;;1.98;;
38591;SDS011;24356;48.460;11.450;2023-04-25T08:28:32;6.38;;;2.10;;
38591;SDS011;24356;48.460;11.450;2023-04-25T08:30:57;5.20;;;1.90;;
38591;SDS011;24356;48.460;11.450;2023-04-25T08:33:23;4.97;;;2.17;;
38591;SDS011;24356;48.460;11.450;2023-04-25T08:35:49;4.07;;;2.08;;
38591;SDS011;24356;48.460;11.450;2023-04-25T08:38:16;3.78;;;1.63;;
38591;SDS011;24356;48.460;11.450;2023-04-25T08:40:43;3.15;;;1.85;;
38591;SDS011;24356;48.460;11.450;2023-04-25T08:43:09;3.67;;;2.13;;
38591;SDS011;24356;48.460;11.450;2023-04-25T08:45:41;4.90;;;2.00;;
38591;SDS011;24356;48.460;11.450;2023-04-25T08:48:08;5.72;;;1.90;;
38591;SDS011;24356;48.460;11.450;2023-04-25T08:50:39;3.42;;;1.85;;
38591;SDS011;24356;48.460;11.450;2023-04-25T08:53:13;2.78;;;1.98;;
38591;SDS011;24356;48.460;11.450;2023-04-25T08:55:45;4.05;;;2.03;;
38591;SDS011;24356;48.460;11.450;2023-04-25T08:58:12;4.25;;;1.70;;
38591;SDS011;24356;48.460;11.450;2023-04-25T09:00:39;3.38;;;2.10;;
38591;SDS011;24356;48.460;11.450;2023-04-25T09:03:05;4.22;;;1.70;;
38591;SDS011;24356;48.460;11.450;2023-04-25T09:05:32;3.58;;;2.00;;
38591;SDS011;24356;48.460;11.450;2023-04-25T09:07:58;2.25;;;1.70;;
38591;SDS011;24356;48.460;11.450;2023-04-25T09:10:25;5.05;;;2.13;;
38591;SDS011;24356;48.460;11.450;2023-04-25T09:15:47;4.43;;;1.98;;
38591;SDS011;24356;48.460;11.450;2023-04-25T09:18:21;2.15;;;1.58;;
38591;SDS011;24356;48.460;11.450;2023-04-25T09:20:48;3.33;;;1.70;;
38591;SDS011;24356;48.460;11.450;2023-04-25T09:23:14;4.38;;;1.80;;
38591;SDS011;24356;48.460;11.450;2023-04-25T09:25:40;2.65;;;1.52;;
38591;SDS011;24356;48.460;11.450;2023-04-25T09:28:07;3.85;;;1.60;;
38591;SDS011;24356;48.460;11.450;2023-04-25T09:30:34;3.17;;;1.50;;
38591;SDS011;24356;48.460;11.450;2023-04-25T09:33:04;2.58;;;1.60;;
38591;SDS011;24356;48.460;11.450;2023-04-25T09:35:34;2.08;;;1.40;;
38591;SDS011;24356;48.460;11.450;2023-04-25T09:38:06;5.18;;;1.50;;
38591;SDS011;24356;48.460;11.450;2023-04-25T09:40:43;2.97;;;1.40;;
38591;SDS011;24356;48.460;11.450;2023-04-25T09:43:21;2.75;;;1.60;;
38591;SDS011;24356;48.460;11.450;2023-04-25T09:45:49;3.28;;;1.50;;
38591;SDS011;24356;48.460;11.450;2023-04-25T09:48:20;3.22;;;1.80;;
38591;SDS011;24356;48.460;11.450;2023-04-25T09:53:35;2.25;;;1.63;;
38591;SDS011;24356;48.460;11.450;2023-04-25T09:56:03;4.53;;;1.83;;
38591;SDS011;24356;48.460;11.450;2023-04-25T09:58:31;5.95;;;1.48;;
38591;SDS011;24356;48.460;11.450;2023-04-25T10:01:02;2.40;;;1.55;;
38591;SDS011;24356;48.460;11.450;2023-04-25T10:03:31;2.70;;;1.48;;
38591;SDS011;24356;48.460;11.450;2023-04-25T10:06:00;2.33;;;1.40;;
38591;SDS011;24356;48.460;11.450;2023-04-25T10:08:31;3.22;;;1.38;;
38591;SDS011;24356;48.460;11.450;2023-04-25T10:11:05;2.10;;;1.30;;
38591;SDS011;24356;48.460;11.450;2023-04-25T10:13:33;1.73;;;1.30;;
38591;SDS011;24356;48.460;11.450;2023-04-25T10:16:02;3.25;;;1.60;;
38591;SDS011;24356;48.460;11.450;2023-04-25T10:18:29;4.25;;;1.70;;
38591;SDS011;24356;48.460;11.450;2023-04-25T10:20:59;3.85;;;1.70;;
38591;SDS011;24356;48.460;11.450;2023-04-25T10:23:26;2.22;;;1.60;;
38591;SDS011;24356;48.460;11.450;2023-04-25T10:25:54;2.30;;;1.58;;
38591;SDS011;24356;48.460;11.450;2023-04-25T10:28:20;5.20;;;1.70;;
38591;SDS011;24356;48.460;11.450;2023-04-25T10:33:33;3.35;;;2.28;;
38591;SDS011;24356;48.460;11.450;2023-04-25T10:36:10;3.45;;;2.13;;
38591;SDS011;24356;48.460;11.450;2023-04-25T10:38:43;4.57;;;2.20;;
38591;SDS011;24356;48.460;11.450;2023-04-25T10:41:11;2.72;;;1.80;;
38591;SDS011;24356;48.460;11.450;2023-04-25T10:43:41;2.83;;;1.60;;
38591;SDS011;24356;48.460;11.450;2023-04-25T10:46:18;1.98;;;1.58;;
38591;SDS011;24356;48.460;11.450;2023-04-25T10:48:57;2.53;;;1.55;;
38591;SDS011;24356;48.460;11.450;2023-04-25T10:51:25;4.00;;;1.88;;
38591;SDS011;24356;48.460;11.450;2023-04-25T10:54:01;3.10;;;1.88;;
38591;SDS011;24356;48.460;11.450;2023-04-25T10:56:28;2.47;;;1.67;;
38591;SDS011;24356;48.460;11.450;2023-04-25T10:59:05;2.65;;;1.98;;
38591;SDS011;24356;48.460;11.450;2023-04-25T11:01:44;3.65;;;2.10;;
38591;SDS011;24356;48.460;11.450;2023-04-25T11:04:28;3.38;;;1.92;;
38591;SDS011;24356;48.460;11.450;2023-04-25T11:09:33;3.60;;;2.08;;
38591;SDS011;24356;48.460;11.450;2023-04-25T11:12:00;4.10;;;1.95;;
38591;SDS011;24356;48.460;11.450;2023-04-25T11:14:26;4.00;;;2.55;;
38591;SDS011;24356;48.460;11.450;2023-04-25T11:16:53;3.25;;;2.28;;
38591;SDS011;24356;48.460;11.450;2023-04-25T11:19:20;4.20;;;2.40;;
38591;SDS011;24356;48.460;11.450;2023-04-25T11:21:46;3.95;;;2.33;;
38591;SDS011;24356;48.460;11.450;2023-04-25T11:24:12;3.10;;;2.13;;
38591;SDS011;24356;48.460;11.450;2023-04-25T11:26:37;3.15;;;2.20;;
38591;SDS011;24356;48.460;11.450;2023-04-25T11:29:03;5.07;;;2.22;;
38591;SDS011;24356;48.460;11.450;2023-04-25T11:31:29;3.00;;;2.20;;
38591;SDS011;24356;48.460;11.450;2023-04-25T11:33:58;3.15;;;2.45;;
38591;SDS011;24356;48.460;11.450;2023-04-25T11:36:25;3.03;;;2.30;;
38591;SDS011;24356;48.460;11.450;2023-04-25T11:38:51;3.00;;;2.55;;
38591;SDS011;24356;48.460;11.450;2023-04-25T11:41:18;3.38;;;2.50;;
38591;SDS011;24356;48.460;11.450;2023-04-25T11:43:45;4.00;;;2.22;;
38591;SDS011;24356;48.460;11.450;2023-04-25T11:46:11;1.95;;;1.80;;
38591;SDS011;24356;48.460;11.450;2023-04-25T11:48:40;2.67;;;1.70;;
38591;SDS011;24356;48.460;11.450;2023-04-25T11:51:06;3.72;;;1.90;;
38591;SDS011;24356;48.460;11.450;2023-04-25T11:53:32;2.97;;;1.88;;
38591;SDS011;24356;48.460;11.450;2023-04-25T11:55:58;3.42;;;1.95;;
38591;SDS011;24356;48.460;11.450;2023-04-25T11:58:23;2.33;;;1.80;;
38591;SDS011;24356;48.460;11.450;2023-04-25T12:00:50;4.65;;;1.70;;
38591;SDS011;24356;48.460;11.450;2023-04-25T12:03:17;3.53;;;1.75;;
38591;SDS011;24356;48.460;11.450;2023-04-25T12:05:43;3.65;;;1.80;;
38591;SDS011;24356;48.460;11.450;2023-04-25T12:08:13;2.58;;;1.50;;
38591;SDS011;24356;48.460;11.450;2023-04-25T12:10:40;4.43;;;1.80;;
38591;SDS011;24356;48.460;11.450;2023-04-25T12:16:03;2.08;;;1.40;;
38591;SDS011;24356;48.460;11.450;2023-04-25T12:18:28;4.95;;;1.38;;
38591;SDS011;24356;48.460;11.450;2023-04-25T12:20:55;2.50;;;1.50;;
38591;SDS011;24356;48.460;11.450;2023-04-25T12:23:27;1.77;;;1.45;;
38591;SDS011;24356;48.460;11.450;2023-04-25T12:25:53;3.92;;;1.50;;
38591;SDS011;24356;48.460;11.450;2023-04-25T12:28:20;2.92;;;1.50;;
38591;SDS011;24356;48.460;11.450;2023-04-25T12:30:59;3.70;;;1.30;;
38591;SDS011;24356;48.460;11.450;2023-04-25T12:33:26;1.38;;;1.15;;
38591;SDS011;24356;48.460;11.450;2023-04-25T12:35:56;1.98;;;1.17;;
38591;SDS011;24356;48.460;11.450;2023-04-25T12:38:23;1.92;;;1.10;;
38591;SDS011;24356;48.460;11.450;2023-04-25T12:40:56;1.42;;;1.27;;
38591;SDS011;24356;48.460;11.450;2023-04-25T12:43:22;2.15;;;1.30;;
38591;SDS011;24356;48.460;11.450;2023-04-25T12:45:50;1.15;;;1.08;;
38591;SDS011;24356;48.460;11.450;2023-04-25T12:48:16;2.50;;;1.42;;
38591;SDS011;24356;48.460;11.450;2023-04-25T12:50:44;1.50;;;1.20;;
38591;SDS011;24356;48.460;11.450;2023-04-25T12:53:10;1.45;;;1.20;;
38591;SDS011;24356;48.460;11.450;2023-04-25T12:55:37;1.85;;;1.45;;
38591;SDS011;24356;48.460;11.450;2023-04-25T12:58:03;2.80;;;1.70;;
38591;SDS011;24356;48.460;11.450;2023-04-25T13:00:29;1.85;;;1.63;;
38591;SDS011;24356;48.460;11.450;2023-04-25T13:02:55;3.17;;;1.30;;
38591;SDS011;24356;48.460;11.450;2023-04-25T13:05:21;3.78;;;1.80;;
38591;SDS011;24356;48.460;11.450;2023-04-25T13:07:47;1.42;;;1.20;;
38591;SDS011;24356;48.460;11.450;2023-04-25T13:10:13;1.98;;;1.60;;
38591;SDS011;24356;48.460;11.450;2023-04-25T13:12:38;1.90;;;1.70;;
38591;SDS011;24356;48.460;11.450;2023-04-25T13:15:04;1.88;;;1.30;;
38591;SDS011;24356;48.460;11.450;2023-04-25T13:17:30;1.42;;;1.33;;
38591;SDS011;24356;48.460;11.450;2023-04-25T13:19:56;4.03;;;1.80;;
38591;SDS011;24356;48.460;11.450;2023-04-25T13:22:21;3.33;;;1.70;;
38591;SDS011;24356;48.460;11.450;2023-04-25T13:24:47;1.63;;;1.50;;
38591;SDS011;24356;48.460;11.450;2023-04-25T13:27:13;2.00;;;1.40;;
38591;SDS011;24356;48.460;11.450;2023-04-25T13:29:40;3.08;;;1.40;;
38591;SDS011;24356;48.460;11.450;2023-04-25T13:32:06;1.88;;;1.27;;
38591;SDS011;24356;48.460;11.450;2023-04-25T13:34:32;2.13;;;1.25;;
38591;SDS011;24356;48.460;11.450;2023-04-25T13:36:58;1.77;;;1.50;;
38591;SDS011;24356;48.460;11.450;2023-04-25T13:39:24;1.52;;;1.30;;
38591;SDS011;24356;48.460;11.450;2023-04-25T13:41:49;4.00;;;1.75;;
38591;SDS011;24356;48.460;11.450;2023-04-25T13:44:15;1.92;;;1.40;;
38591;SDS011;24356;48.460;11.450;2023-04-25T13:46:41;1.45;;;1.35;;
38591;SDS011;24356;48.460;11.450;2023-04-25T13:49:06;3.63;;;1.38;;
38591;SDS011;24356;48.460;11.450;2023-04-25T13:51:32;1.85;;;1.50;;
38591;SDS011;24356;48.460;11.450;2023-04-25T13:53:57;2.38;;;1.70;;
38591;SDS011;24356;48.460;11.450;2023-04-25T13:56:23;1.40;;;1.30;;
38591;SDS011;24356;48.460;11.450;2023-04-25T13:58:52;2.28;;;1.80;;
38591;SDS011;24356;48.460;11.450;2023-04-25T14:01:18;1.80;;;1.40;;
38591;SDS011;24356;48.460;11.450;2023-04-25T14:03:44;3.50;;;1.90;;
38591;SDS011;24356;48.460;11.450;2023-04-25T14:06:10;1.33;;;1.23;;
38591;SDS011;24356;48.460;11.450;2023-04-25T14:08:37;3.15;;;1.30;;
38591;SDS011;24356;48.460;11.450;2023-04-25T14:11:03;2.67;;;1.27;;
38591;SDS011;24356;48.460;11.450;2023-04-25T14:13:29;1.60;;;1.50;;
38591;SDS011;24356;48.460;11.450;2023-04-25T14:15:54;1.30;;;1.20;;
38591;SDS011;24356;48.460;11.450;2023-04-25T14:18:20;2.85;;;2.00;;
38591;SDS011;24356;48.460;11.450;2023-04-25T14:20:46;2.15;;;1.45;;
38591;SDS011;24356;48.460;11.450;2023-04-25T14:23:13;1.90;;;1.55;;
38591;SDS011;24356;48.460;11.450;2023-04-25T14:25:39;1.75;;;1.42;;
38591;SDS011;24356;48.460;11.450;2023-04-25T14:28:06;1.55;;;1.45;;
38591;SDS011;24356;48.460;11.450;2023-04-25T14:30:32;2.88;;;1.52;;
38591;SDS011;24356;48.460;11.450;2023-04-25T14:32:58;1.50;;;1.30;;
38591;SDS011;24356;48.460;11.450;2023-04-25T14:35:23;4.30;;;1.55;;
38591;SDS011;24356;48.460;11.450;2023-04-25T14:37:49;1.67;;;1.58;;
38591;SDS011;24356;48.460;11.450;2023-04-25T14:40:14;1.67;;;1.48;;
38591;SDS011;24356;48.460;11.450;2023-04-25T14:42:42;1.77;;;1.30;;
38591;SDS011;24356;48.460;11.450;2023-04-25T14:45:07;1.25;;;1.15;;